Aviation Digital Data Service (ADDS)

Output produced by TAFs form (1032 UTC 07 December 2016)
found at http://www.aviationweather.gov/adds/tafs/
 
KMDT 071019Z 0710/0806 00000KT 4SM BR BKN005 OVC035 
     FM071200 29008G15KT P6SM BKN025 
     FM071400 30008G20KT P6SM SCT040 
     FM072300 29007KT P6SM SKC